sensor_id;sensor_type;location;lat;lon;timestamp;temperature;humidity
69776;DHT22;57049;51.450;-2.516;2024-03-07T00:00:12;5.90;99.99
69776;DHT22;57049;51.450;-2.516;2024-03-07T00:02:50;5.91;99.99
69776;DHT22;57049;51.450;-2.516;2024-03-07T00:05:18;5.89;99.99
69776;DHT22;57049;51.450;-2.516;2024-03-07T00:07:44;5.80;99.99
69776;DHT22;57049;51.450;-2.516;2024-03-07T00:10:10;5.74;99.99
69776;DHT22;57049;51.450;-2.516;2024-03-07T00:12:37;5.66;99.99
69776;DHT22;57049;51.450;-2.516;2024-03-07T00:15:07;5.66;99.99
69776;DHT22;57049;51.450;-2.516;2024-03-07T00:17:35;5.60;99.99
69776;DHT22;57049;51.450;-2.516;2024-03-07T00:20:02;5.59;99.99
69776;DHT22;57049;51.450;-2.516;2024-03-07T00:22:32;5.57;99.99
69776;DHT22;57049;51.450;-2.516;2024-03-07T00:24:57;5.66;99.99
69776;DHT22;57049;51.450;-2.516;2024-03-07T00:27:24;5.69;99.99
69776;DHT22;57049;51.450;-2.516;2024-03-07T00:29:51;5.73;99.99
69776;DHT22;57049;51.450;-2.516;2024-03-07T00:32:23;5.73;99.99
69776;DHT22;57049;51.450;-2.516;2024-03-07T00:34:49;5.76;99.99
69776;DHT22;57049;51.450;-2.516;2024-03-07T00:37:17;5.83;99.99
69776;DHT22;57049;51.450;-2.516;2024-03-07T00:39:43;5.86;99.99
69776;DHT22;57049;51.450;-2.516;2024-03-07T00:42:09;5.93;99.99
69776;DHT22;57049;51.450;-2.516;2024-03-07T00:44:35;5.94;99.99
69776;DHT22;57049;51.450;-2.516;2024-03-07T00:47:01;5.96;99.99
69776;DHT22;57049;51.450;-2.516;2024-03-07T00:49:27;6.00;99.99
69776;DHT22;57049;51.450;-2.516;2024-03-07T00:51:54;6.03;99.99
69776;DHT22;57049;51.450;-2.516;2024-03-07T00:54:20;5.98;99.99
69776;DHT22;57049;51.450;-2.516;2024-03-07T00:56:45;6.03;99.99
69776;DHT22;57049;51.450;-2.516;2024-03-07T00:59:20;6.04;99.99
69776;DHT22;57049;51.450;-2.516;2024-03-07T01:01:46;6.03;99.99
69776;DHT22;57049;51.450;-2.516;2024-03-07T01:04:11;6.08;99.99
69776;DHT22;57049;51.450;-2.516;2024-03-07T01:06:37;6.03;99.99
69776;DHT22;57049;51.450;-2.516;2024-03-07T01:09:03;6.03;99.99
69776;DHT22;57049;51.450;-2.516;2024-03-07T01:11:28;6.04;99.99
69776;DHT22;57049;51.450;-2.516;2024-03-07T01:13:55;6.07;99.99
69776;DHT22;57049;51.450;-2.516;2024-03-07T01:16:21;5.97;99.99
69776;DHT22;57049;51.450;-2.516;2024-03-07T01:18:46;5.91;99.99
69776;DHT22;57049;51.450;-2.516;2024-03-07T01:21:12;5.87;99.99
69776;DHT22;57049;51.450;-2.516;2024-03-07T01:23:38;5.86;99.99
69776;DHT22;57049;51.450;-2.516;2024-03-07T01:26:04;5.86;99.99
69776;DHT22;57049;51.450;-2.516;2024-03-07T01:28:29;5.81;99.99
69776;DHT22;57049;51.450;-2.516;2024-03-07T01:30:55;5.85;99.99
69776;DHT22;57049;51.450;-2.516;2024-03-07T01:33:21;5.91;99.99
69776;DHT22;57049;51.450;-2.516;2024-03-07T01:35:47;5.91;99.99
69776;DHT22;57049;51.450;-2.516;2024-03-07T01:38:14;5.87;99.99
69776;DHT22;57049;51.450;-2.516;2024-03-07T01:40:40;5.81;99.99
69776;DHT22;57049;51.450;-2.516;2024-03-07T01:43:07;5.74;99.99
69776;DHT22;57049;51.450;-2.516;2024-03-07T01:45:32;5.73;99.99
69776;DHT22;57049;51.450;-2.516;2024-03-07T01:47:59;5.70;99.99
69776;DHT22;57049;51.450;-2.516;2024-03-07T01:50:24;5.65;99.99
69776;DHT22;57049;51.450;-2.516;2024-03-07T01:52:50;5.67;99.99
69776;DHT22;57049;51.450;-2.516;2024-03-07T01:55:17;5.76;99.99
69776;DHT22;57049;51.450;-2.516;2024-03-07T01:57:43;5.76;99.99
69776;DHT22;57049;51.450;-2.516;2024-03-07T02:00:09;5.76;99.99
69776;DHT22;57049;51.450;-2.516;2024-03-07T02:02:35;5.78;99.99
69776;DHT22;57049;51.450;-2.516;2024-03-07T02:05:01;5.86;99.99
69776;DHT22;57049;51.450;-2.516;2024-03-07T02:07:26;5.93;99.99
69776;DHT22;57049;51.450;-2.516;2024-03-07T02:10:05;5.90;99.99
69776;DHT22;57049;51.450;-2.516;2024-03-07T02:12:31;5.86;99.99
69776;DHT22;57049;51.450;-2.516;2024-03-07T02:14:57;5.89;99.99
69776;DHT22;57049;51.450;-2.516;2024-03-07T02:17:24;5.93;99.99
69776;DHT22;57049;51.450;-2.516;2024-03-07T02:19:49;5.91;99.99
69776;DHT22;57049;51.450;-2.516;2024-03-07T02:22:16;5.90;99.99
69776;DHT22;57049;51.450;-2.516;2024-03-07T02:24:41;5.94;99.99
69776;DHT22;57049;51.450;-2.516;2024-03-07T02:27:06;5.86;99.99
69776;DHT22;57049;51.450;-2.516;2024-03-07T02:29:33;5.86;99.99
69776;DHT22;57049;51.450;-2.516;2024-03-07T02:31:59;5.85;99.99
69776;DHT22;57049;51.450;-2.516;2024-03-07T02:34:24;5.85;99.99
69776;DHT22;57049;51.450;-2.516;2024-03-07T02:36:51;5.86;99.99
69776;DHT22;57049;51.450;-2.516;2024-03-07T02:39:17;5.85;99.99
69776;DHT22;57049;51.450;-2.516;2024-03-07T02:41:42;5.87;99.99
69776;DHT22;57049;51.450;-2.516;2024-03-07T02:44:08;5.81;99.99
69776;DHT22;57049;51.450;-2.516;2024-03-07T02:46:33;5.87;99.99
69776;DHT22;57049;51.450;-2.516;2024-03-07T02:48:58;5.86;99.99
69776;DHT22;57049;51.450;-2.516;2024-03-07T02:51:25;5.81;99.99
69776;DHT22;57049;51.450;-2.516;2024-03-07T02:53:50;5.80;99.99
69776;DHT22;57049;51.450;-2.516;2024-03-07T02:56:16;5.74;99.99
69776;DHT22;57049;51.450;-2.516;2024-03-07T02:58:41;5.77;99.99
69776;DHT22;57049;51.450;-2.516;2024-03-07T03:01:07;5.74;99.99
69776;DHT22;57049;51.450;-2.516;2024-03-07T03:03:32;5.73;99.99
69776;DHT22;57049;51.450;-2.516;2024-03-07T03:05:59;5.70;99.99
69776;DHT22;57049;51.450;-2.516;2024-03-07T03:08:25;5.67;99.99
69776;DHT22;57049;51.450;-2.516;2024-03-07T03:10:50;5.71;99.99
69776;DHT22;57049;51.450;-2.516;2024-03-07T03:13:18;5.67;99.99
69776;DHT22;57049;51.450;-2.516;2024-03-07T03:15:44;5.67;99.99
69776;DHT22;57049;51.450;-2.516;2024-03-07T03:18:09;5.66;99.99
69776;DHT22;57049;51.450;-2.516;2024-03-07T03:20:35;5.63;99.99
69776;DHT22;57049;51.450;-2.516;2024-03-07T03:23:04;5.60;99.98
69776;DHT22;57049;51.450;-2.516;2024-03-07T03:25:33;5.56;99.99
69776;DHT22;57049;51.450;-2.516;2024-03-07T03:28:06;5.45;99.99
69776;DHT22;57049;51.450;-2.516;2024-03-07T03:30:33;5.38;99.99
69776;DHT22;57049;51.450;-2.516;2024-03-07T03:32:59;5.34;99.99
69776;DHT22;57049;51.450;-2.516;2024-03-07T03:35:25;5.29;99.99
69776;DHT22;57049;51.450;-2.516;2024-03-07T03:37:50;5.28;99.99
69776;DHT22;57049;51.450;-2.516;2024-03-07T03:40:16;5.22;99.99
69776;DHT22;57049;51.450;-2.516;2024-03-07T03:42:42;5.14;99.99
69776;DHT22;57049;51.450;-2.516;2024-03-07T03:45:09;5.11;99.99
69776;DHT22;57049;51.450;-2.516;2024-03-07T03:47:40;4.99;99.99
69776;DHT22;57049;51.450;-2.516;2024-03-07T03:50:07;4.91;99.99
69776;DHT22;57049;51.450;-2.516;2024-03-07T03:52:33;4.83;99.99
69776;DHT22;57049;51.450;-2.516;2024-03-07T03:55:01;4.71;99.99
69776;DHT22;57049;51.450;-2.516;2024-03-07T03:57:27;4.63;99.99
69776;DHT22;57049;51.450;-2.516;2024-03-07T03:59:53;4.63;99.99
69776;DHT22;57049;51.450;-2.516;2024-03-07T04:02:20;4.57;99.99
69776;DHT22;57049;51.450;-2.516;2024-03-07T04:04:46;4.50;99.99
69776;DHT22;57049;51.450;-2.516;2024-03-07T04:07:12;4.40;99.99
69776;DHT22;57049;51.450;-2.516;2024-03-07T04:09:38;4.34;99.99
69776;DHT22;57049;51.450;-2.516;2024-03-07T04:12:04;4.20;99.99
69776;DHT22;57049;51.450;-2.516;2024-03-07T04:14:30;4.07;99.99
69776;DHT22;57049;51.450;-2.516;2024-03-07T04:16:58;4.01;99.99
69776;DHT22;57049;51.450;-2.516;2024-03-07T04:19:23;3.88;99.99
69776;DHT22;57049;51.450;-2.516;2024-03-07T04:21:50;3.81;99.99
69776;DHT22;57049;51.450;-2.516;2024-03-07T04:24:16;3.74;99.99
69776;DHT22;57049;51.450;-2.516;2024-03-07T04:26:42;3.72;99.99
69776;DHT22;57049;51.450;-2.516;2024-03-07T04:29:07;3.68;99.99
69776;DHT22;57049;51.450;-2.516;2024-03-07T04:31:36;3.74;99.99
69776;DHT22;57049;51.450;-2.516;2024-03-07T04:34:02;3.81;99.99
69776;DHT22;57049;51.450;-2.516;2024-03-07T04:36:27;3.86;99.99
69776;DHT22;57049;51.450;-2.516;2024-03-07T04:38:54;3.88;99.99
69776;DHT22;57049;51.450;-2.516;2024-03-07T04:41:20;3.88;99.99
69776;DHT22;57049;51.450;-2.516;2024-03-07T04:43:46;3.82;99.99
69776;DHT22;57049;51.450;-2.516;2024-03-07T04:46:12;3.74;99.99
69776;DHT22;57049;51.450;-2.516;2024-03-07T04:48:37;3.60;99.99
69776;DHT22;57049;51.450;-2.516;2024-03-07T04:51:03;3.44;99.99
69776;DHT22;57049;51.450;-2.516;2024-03-07T04:53:28;3.34;99.99
69776;DHT22;57049;51.450;-2.516;2024-03-07T04:55:54;3.30;99.99
69776;DHT22;57049;51.450;-2.516;2024-03-07T04:58:19;3.26;99.99
69776;DHT22;57049;51.450;-2.516;2024-03-07T05:00:45;3.17;99.99
69776;DHT22;57049;51.450;-2.516;2024-03-07T05:03:10;3.11;99.99
69776;DHT22;57049;51.450;-2.516;2024-03-07T05:05:36;3.06;99.99
69776;DHT22;57049;51.450;-2.516;2024-03-07T05:08:02;3.01;99.99
69776;DHT22;57049;51.450;-2.516;2024-03-07T05:10:29;3.03;99.99
69776;DHT22;57049;51.450;-2.516;2024-03-07T05:12:56;3.01;99.99
69776;DHT22;57049;51.450;-2.516;2024-03-07T05:15:24;3.01;99.99
69776;DHT22;57049;51.450;-2.516;2024-03-07T05:17:54;2.99;99.99
69776;DHT22;57049;51.450;-2.516;2024-03-07T05:20:21;3.01;99.99
69776;DHT22;57049;51.450;-2.516;2024-03-07T05:22:47;2.95;99.99
69776;DHT22;57049;51.450;-2.516;2024-03-07T05:25:19;2.93;99.99
69776;DHT22;57049;51.450;-2.516;2024-03-07T05:27:45;2.89;99.99
69776;DHT22;57049;51.450;-2.516;2024-03-07T05:30:11;2.86;99.99
69776;DHT22;57049;51.450;-2.516;2024-03-07T05:32:38;2.86;99.99
69776;DHT22;57049;51.450;-2.516;2024-03-07T05:35:05;2.85;99.99
69776;DHT22;57049;51.450;-2.516;2024-03-07T05:37:31;2.80;99.99
69776;DHT22;57049;51.450;-2.516;2024-03-07T05:39:57;2.86;99.99
69776;DHT22;57049;51.450;-2.516;2024-03-07T05:42:22;2.87;99.99
69776;DHT22;57049;51.450;-2.516;2024-03-07T05:44:50;2.87;99.99
69776;DHT22;57049;51.450;-2.516;2024-03-07T05:47:15;2.92;99.99
69776;DHT22;57049;51.450;-2.516;2024-03-07T05:49:42;2.99;99.99
69776;DHT22;57049;51.450;-2.516;2024-03-07T05:52:07;3.01;99.99
69776;DHT22;57049;51.450;-2.516;2024-03-07T05:54:34;3.04;99.99
69776;DHT22;57049;51.450;-2.516;2024-03-07T05:57:00;3.07;99.99
69776;DHT22;57049;51.450;-2.516;2024-03-07T05:59:25;3.08;99.99
69776;DHT22;57049;51.450;-2.516;2024-03-07T06:01:53;3.07;99.99
69776;DHT22;57049;51.450;-2.516;2024-03-07T06:04:19;3.10;99.99
69776;DHT22;57049;51.450;-2.516;2024-03-07T06:06:45;3.14;99.99
69776;DHT22;57049;51.450;-2.516;2024-03-07T06:09:13;3.16;99.99
69776;DHT22;57049;51.450;-2.516;2024-03-07T06:11:39;3.21;99.99
69776;DHT22;57049;51.450;-2.516;2024-03-07T06:14:09;3.20;99.99
69776;DHT22;57049;51.450;-2.516;2024-03-07T06:16:38;3.23;99.99
69776;DHT22;57049;51.450;-2.516;2024-03-07T06:19:04;3.21;99.99
69776;DHT22;57049;51.450;-2.516;2024-03-07T06:21:32;3.20;99.99
69776;DHT22;57049;51.450;-2.516;2024-03-07T06:23:58;3.18;99.99
69776;DHT22;57049;51.450;-2.516;2024-03-07T06:26:29;3.20;99.99
69776;DHT22;57049;51.450;-2.516;2024-03-07T06:29:16;3.20;99.99
69776;DHT22;57049;51.450;-2.516;2024-03-07T06:31:42;3.20;99.99
69776;DHT22;57049;51.450;-2.516;2024-03-07T06:34:08;3.26;99.99
69776;DHT22;57049;51.450;-2.516;2024-03-07T06:36:35;3.23;99.99
69776;DHT22;57049;51.450;-2.516;2024-03-07T06:39:00;3.26;99.99
69776;DHT22;57049;51.450;-2.516;2024-03-07T06:41:26;3.31;99.99
69776;DHT22;57049;51.450;-2.516;2024-03-07T06:43:52;3.35;99.99
69776;DHT22;57049;51.450;-2.516;2024-03-07T06:46:20;3.40;99.99
69776;DHT22;57049;51.450;-2.516;2024-03-07T06:48:45;3.45;99.99
69776;DHT22;57049;51.450;-2.516;2024-03-07T06:51:11;3.52;99.99
69776;DHT22;57049;51.450;-2.516;2024-03-07T06:53:37;3.55;99.99
69776;DHT22;57049;51.450;-2.516;2024-03-07T06:56:03;3.62;99.99
69776;DHT22;57049;51.450;-2.516;2024-03-07T06:58:28;3.69;99.99
69776;DHT22;57049;51.450;-2.516;2024-03-07T07:00:56;3.75;99.99
69776;DHT22;57049;51.450;-2.516;2024-03-07T07:03:23;3.81;99.99
69776;DHT22;57049;51.450;-2.516;2024-03-07T07:05:49;3.93;99.99
69776;DHT22;57049;51.450;-2.516;2024-03-07T07:08:15;4.03;99.99
69776;DHT22;57049;51.450;-2.516;2024-03-07T07:10:41;4.12;99.99
69776;DHT22;57049;51.450;-2.516;2024-03-07T07:13:08;4.19;99.99
69776;DHT22;57049;51.450;-2.516;2024-03-07T07:15:33;4.22;99.99
69776;DHT22;57049;51.450;-2.516;2024-03-07T07:17:59;4.29;99.99
69776;DHT22;57049;51.450;-2.516;2024-03-07T07:20:27;4.39;99.99
69776;DHT22;57049;51.450;-2.516;2024-03-07T07:22:53;4.47;99.99
69776;DHT22;57049;51.450;-2.516;2024-03-07T07:25:19;4.61;99.99
69776;DHT22;57049;51.450;-2.516;2024-03-07T07:27:52;4.71;99.99
69776;DHT22;57049;51.450;-2.516;2024-03-07T07:30:20;4.80;99.99
69776;DHT22;57049;51.450;-2.516;2024-03-07T07:32:49;4.75;99.99
69776;DHT22;57049;51.450;-2.516;2024-03-07T07:35:15;4.78;99.99
69776;DHT22;57049;51.450;-2.516;2024-03-07T07:37:43;4.85;99.99
69776;DHT22;57049;51.450;-2.516;2024-03-07T07:40:11;4.95;99.99
69776;DHT22;57049;51.450;-2.516;2024-03-07T07:42:40;4.94;99.99
69776;DHT22;57049;51.450;-2.516;2024-03-07T07:45:08;4.99;99.99
69776;DHT22;57049;51.450;-2.516;2024-03-07T07:47:41;5.02;99.99
69776;DHT22;57049;51.450;-2.516;2024-03-07T07:50:15;5.11;99.99
69776;DHT22;57049;51.450;-2.516;2024-03-07T07:52:56;5.14;99.74
69776;DHT22;57049;51.450;-2.516;2024-03-07T07:55:29;5.24;99.58
69776;DHT22;57049;51.450;-2.516;2024-03-07T07:57:59;5.25;99.26
69776;DHT22;57049;51.450;-2.516;2024-03-07T08:00:26;5.34;99.15
69776;DHT22;57049;51.450;-2.516;2024-03-07T08:03:04;5.38;99.01
69776;DHT22;57049;51.450;-2.516;2024-03-07T08:05:34;5.42;99.00
69776;DHT22;57049;51.450;-2.516;2024-03-07T08:08:04;5.43;98.85
69776;DHT22;57049;51.450;-2.516;2024-03-07T08:10:35;5.53;98.78
69776;DHT22;57049;51.450;-2.516;2024-03-07T08:13:03;5.55;98.48
69776;DHT22;57049;51.450;-2.516;2024-03-07T08:15:31;5.59;98.30
69776;DHT22;57049;51.450;-2.516;2024-03-07T08:17:58;5.60;98.13
69776;DHT22;57049;51.450;-2.516;2024-03-07T08:20:25;5.66;97.61
69776;DHT22;57049;51.450;-2.516;2024-03-07T08:22:52;5.66;97.65
69776;DHT22;57049;51.450;-2.516;2024-03-07T08:25:19;5.73;97.32
69776;DHT22;57049;51.450;-2.516;2024-03-07T08:27:48;5.78;97.30
69776;DHT22;57049;51.450;-2.516;2024-03-07T08:30:14;5.74;97.06
69776;DHT22;57049;51.450;-2.516;2024-03-07T08:32:53;5.78;96.93
69776;DHT22;57049;51.450;-2.516;2024-03-07T08:35:19;5.81;96.60
69776;DHT22;57049;51.450;-2.516;2024-03-07T08:37:47;5.83;96.80
69776;DHT22;57049;51.450;-2.516;2024-03-07T08:40:19;5.89;96.74
69776;DHT22;57049;51.450;-2.516;2024-03-07T08:42:46;5.97;96.49
69776;DHT22;57049;51.450;-2.516;2024-03-07T08:45:12;5.94;95.95
69776;DHT22;57049;51.450;-2.516;2024-03-07T08:47:43;6.06;95.84
69776;DHT22;57049;51.450;-2.516;2024-03-07T08:50:09;6.11;95.81
69776;DHT22;57049;51.450;-2.516;2024-03-07T08:52:35;6.21;95.70
69776;DHT22;57049;51.450;-2.516;2024-03-07T08:55:07;6.38;95.33
69776;DHT22;57049;51.450;-2.516;2024-03-07T08:57:37;6.49;95.05
69776;DHT22;57049;51.450;-2.516;2024-03-07T09:00:03;6.61;94.07
69776;DHT22;57049;51.450;-2.516;2024-03-07T09:02:34;6.72;93.67
69776;DHT22;57049;51.450;-2.516;2024-03-07T09:05:00;6.85;92.81
69776;DHT22;57049;51.450;-2.516;2024-03-07T09:07:25;6.95;93.09
69776;DHT22;57049;51.450;-2.516;2024-03-07T09:09:51;7.12;92.38
69776;DHT22;57049;51.450;-2.516;2024-03-07T09:12:16;6.85;91.96
69776;DHT22;57049;51.450;-2.516;2024-03-07T09:14:42;6.78;92.47
69776;DHT22;57049;51.450;-2.516;2024-03-07T09:17:07;7.13;92.47
69776;DHT22;57049;51.450;-2.516;2024-03-07T09:19:33;7.14;91.78
69776;DHT22;57049;51.450;-2.516;2024-03-07T09:21:58;7.12;91.30
69776;DHT22;57049;51.450;-2.516;2024-03-07T09:24:25;7.07;91.65
69776;DHT22;57049;51.450;-2.516;2024-03-07T09:26:52;7.12;91.72
69776;DHT22;57049;51.450;-2.516;2024-03-07T09:29:18;7.26;91.64
69776;DHT22;57049;51.450;-2.516;2024-03-07T09:31:49;7.37;91.50
69776;DHT22;57049;51.450;-2.516;2024-03-07T09:34:17;7.51;91.15
69776;DHT22;57049;51.450;-2.516;2024-03-07T09:36:42;7.60;91.03
69776;DHT22;57049;51.450;-2.516;2024-03-07T09:39:08;7.43;90.77
69776;DHT22;57049;51.450;-2.516;2024-03-07T09:41:38;7.40;90.80
69776;DHT22;57049;51.450;-2.516;2024-03-07T09:44:04;7.33;90.71
69776;DHT22;57049;51.450;-2.516;2024-03-07T09:46:30;7.65;90.65
69776;DHT22;57049;51.450;-2.516;2024-03-07T09:48:57;7.64;89.80
69776;DHT22;57049;51.450;-2.516;2024-03-07T09:51:24;7.85;89.54
69776;DHT22;57049;51.450;-2.516;2024-03-07T09:53:50;7.74;89.25
69776;DHT22;57049;51.450;-2.516;2024-03-07T09:56:17;7.96;89.05
69776;DHT22;57049;51.450;-2.516;2024-03-07T09:58:51;8.30;88.57
69776;DHT22;57049;51.450;-2.516;2024-03-07T10:01:20;8.35;88.37
69776;DHT22;57049;51.450;-2.516;2024-03-07T10:03:50;8.39;87.50
69776;DHT22;57049;51.450;-2.516;2024-03-07T10:06:16;8.22;87.52
69776;DHT22;57049;51.450;-2.516;2024-03-07T10:08:42;8.49;87.83
69776;DHT22;57049;51.450;-2.516;2024-03-07T10:11:08;8.42;87.59
69776;DHT22;57049;51.450;-2.516;2024-03-07T10:13:34;8.61;86.32
69776;DHT22;57049;51.450;-2.516;2024-03-07T10:16:03;8.32;86.76
69776;DHT22;57049;51.450;-2.516;2024-03-07T10:18:30;8.49;86.75
69776;DHT22;57049;51.450;-2.516;2024-03-07T10:20:56;8.67;86.70
69776;DHT22;57049;51.450;-2.516;2024-03-07T10:23:25;8.49;84.71
69776;DHT22;57049;51.450;-2.516;2024-03-07T10:25:50;8.76;84.75
69776;DHT22;57049;51.450;-2.516;2024-03-07T10:28:17;8.85;84.53
69776;DHT22;57049;51.450;-2.516;2024-03-07T10:30:43;8.71;83.76
69776;DHT22;57049;51.450;-2.516;2024-03-07T10:33:13;8.78;84.86
69776;DHT22;57049;51.450;-2.516;2024-03-07T10:35:39;8.98;84.22
69776;DHT22;57049;51.450;-2.516;2024-03-07T10:38:04;9.00;83.93
69776;DHT22;57049;51.450;-2.516;2024-03-07T10:40:32;8.71;84.36
69776;DHT22;57049;51.450;-2.516;2024-03-07T10:43:00;8.81;84.72
69776;DHT22;57049;51.450;-2.516;2024-03-07T10:45:29;8.81;83.99
69776;DHT22;57049;51.450;-2.516;2024-03-07T10:47:58;8.88;83.81
69776;DHT22;57049;51.450;-2.516;2024-03-07T10:56:15;9.52;81.13
69776;DHT22;57049;51.450;-2.516;2024-03-07T10:59:07;9.70;81.63
69776;DHT22;57049;51.450;-2.516;2024-03-07T11:01:49;9.75;80.57
69776;DHT22;57049;51.450;-2.516;2024-03-07T11:04:17;9.78;80.13
69776;DHT22;57049;51.450;-2.516;2024-03-07T11:06:43;9.78;79.71
69776;DHT22;57049;51.450;-2.516;2024-03-07T11:09:13;9.89;79.47
69776;DHT22;57049;51.450;-2.516;2024-03-07T11:11:39;9.70;80.28
69776;DHT22;57049;51.450;-2.516;2024-03-07T11:14:10;9.85;78.85
69776;DHT22;57049;51.450;-2.516;2024-03-07T11:16:39;10.03;79.01
69776;DHT22;57049;51.450;-2.516;2024-03-07T11:21:44;10.07;77.59
69776;DHT22;57049;51.450;-2.516;2024-03-07T11:24:22;10.41;78.12
69776;DHT22;57049;51.450;-2.516;2024-03-07T11:26:48;10.38;77.93
69776;DHT22;57049;51.450;-2.516;2024-03-07T11:29:48;10.52;77.02
69776;DHT22;57049;51.450;-2.516;2024-03-07T11:32:18;10.44;75.47
69776;DHT22;57049;51.450;-2.516;2024-03-07T11:34:46;10.91;75.14
69776;DHT22;57049;51.450;-2.516;2024-03-07T11:37:38;10.89;74.37
69776;DHT22;57049;51.450;-2.516;2024-03-07T11:40:10;10.79;73.46
69776;DHT22;57049;51.450;-2.516;2024-03-07T11:42:53;10.57;74.94
69776;DHT22;57049;51.450;-2.516;2024-03-07T11:45:25;10.61;74.29
69776;DHT22;57049;51.450;-2.516;2024-03-07T11:48:04;11.22;75.27
69776;DHT22;57049;51.450;-2.516;2024-03-07T11:50:36;11.64;74.14
69776;DHT22;57049;51.450;-2.516;2024-03-07T11:53:15;11.44;72.89
69776;DHT22;57049;51.450;-2.516;2024-03-07T11:55:41;11.56;73.24
69776;DHT22;57049;51.450;-2.516;2024-03-07T11:58:14;11.63;74.54
69776;DHT22;57049;51.450;-2.516;2024-03-07T12:00:44;11.13;76.58
69776;DHT22;57049;51.450;-2.516;2024-03-07T12:03:18;10.65;77.79
69776;DHT22;57049;51.450;-2.516;2024-03-07T12:05:46;10.69;78.28
69776;DHT22;57049;51.450;-2.516;2024-03-07T12:08:12;10.55;78.25
69776;DHT22;57049;51.450;-2.516;2024-03-07T12:10:39;10.34;78.66
69776;DHT22;57049;51.450;-2.516;2024-03-07T12:13:09;10.04;78.77
69776;DHT22;57049;51.450;-2.516;2024-03-07T12:15:37;9.86;79.84
69776;DHT22;57049;51.450;-2.516;2024-03-07T12:18:04;9.96;79.01
69776;DHT22;57049;51.450;-2.516;2024-03-07T12:20:35;10.21;79.78
69776;DHT22;57049;51.450;-2.516;2024-03-07T12:23:00;10.33;79.07
69776;DHT22;57049;51.450;-2.516;2024-03-07T12:25:58;10.58;77.51
69776;DHT22;57049;51.450;-2.516;2024-03-07T12:28:21;10.25;78.07
69776;DHT22;57049;51.450;-2.516;2024-03-07T12:30:50;10.13;78.10
69776;DHT22;57049;51.450;-2.516;2024-03-07T12:33:18;10.29;78.10
69776;DHT22;57049;51.450;-2.516;2024-03-07T12:35:44;10.48;77.89
69776;DHT22;57049;51.450;-2.516;2024-03-07T12:38:10;10.30;77.72
69776;DHT22;57049;51.450;-2.516;2024-03-07T12:40:41;10.31;77.31
69776;DHT22;57049;51.450;-2.516;2024-03-07T12:43:33;10.33;77.23
69776;DHT22;57049;51.450;-2.516;2024-03-07T12:45:59;10.37;76.97
69776;DHT22;57049;51.450;-2.516;2024-03-07T12:48:25;10.62;77.31
69776;DHT22;57049;51.450;-2.516;2024-03-07T12:50:57;10.62;77.93
69776;DHT22;57049;51.450;-2.516;2024-03-07T12:53:23;10.21;79.35
69776;DHT22;57049;51.450;-2.516;2024-03-07T12:55:51;10.34;79.82
69776;DHT22;57049;51.450;-2.516;2024-03-07T12:58:17;10.25;79.75
69776;DHT22;57049;51.450;-2.516;2024-03-07T13:00:45;10.37;79.68
69776;DHT22;57049;51.450;-2.516;2024-03-07T13:03:11;10.68;79.69
69776;DHT22;57049;51.450;-2.516;2024-03-07T13:05:40;10.48;78.75
69776;DHT22;57049;51.450;-2.516;2024-03-07T13:08:06;10.76;78.10
69776;DHT22;57049;51.450;-2.516;2024-03-07T13:10:39;10.62;78.80
69776;DHT22;57049;51.450;-2.516;2024-03-07T13:13:06;10.62;77.89
69776;DHT22;57049;51.450;-2.516;2024-03-07T13:15:32;10.99;78.04
69776;DHT22;57049;51.450;-2.516;2024-03-07T13:17:57;11.15;76.93
69776;DHT22;57049;51.450;-2.516;2024-03-07T13:20:23;11.37;75.95
69776;DHT22;57049;51.450;-2.516;2024-03-07T13:22:51;11.20;75.99
69776;DHT22;57049;51.450;-2.516;2024-03-07T13:25:21;11.11;77.06
69776;DHT22;57049;51.450;-2.516;2024-03-07T13:28:14;11.26;77.58
69776;DHT22;57049;51.450;-2.516;2024-03-07T13:30:43;11.32;78.59
69776;DHT22;57049;51.450;-2.516;2024-03-07T13:33:09;10.76;80.69
69776;DHT22;57049;51.450;-2.516;2024-03-07T13:35:38;10.57;82.07
69776;DHT22;57049;51.450;-2.516;2024-03-07T13:38:04;10.47;82.16
69776;DHT22;57049;51.450;-2.516;2024-03-07T13:40:29;10.34;82.49
69776;DHT22;57049;51.450;-2.516;2024-03-07T13:43:00;10.29;82.96
69776;DHT22;57049;51.450;-2.516;2024-03-07T13:45:28;10.52;82.87
69776;DHT22;57049;51.450;-2.516;2024-03-07T13:47:55;10.38;82.46
69776;DHT22;57049;51.450;-2.516;2024-03-07T13:50:23;10.21;83.01
69776;DHT22;57049;51.450;-2.516;2024-03-07T13:52:50;10.40;83.45
69776;DHT22;57049;51.450;-2.516;2024-03-07T13:55:46;10.43;83.35
69776;DHT22;57049;51.450;-2.516;2024-03-07T13:58:24;10.52;83.04
69776;DHT22;57049;51.450;-2.516;2024-03-07T14:01:05;10.50;82.93
69776;DHT22;57049;51.450;-2.516;2024-03-07T14:04:14;10.65;82.59
69776;DHT22;57049;51.450;-2.516;2024-03-07T14:17:54;10.51;82.53
69776;DHT22;57049;51.450;-2.516;2024-03-07T14:20:51;10.50;83.04
69776;DHT22;57049;51.450;-2.516;2024-03-07T14:32:04;10.25;83.54
69776;DHT22;57049;51.450;-2.516;2024-03-07T14:34:59;10.30;83.82
69776;DHT22;57049;51.450;-2.516;2024-03-07T14:37:37;10.44;83.03
69776;DHT22;57049;51.450;-2.516;2024-03-07T14:40:09;10.47;82.79
69776;DHT22;57049;51.450;-2.516;2024-03-07T14:42:46;10.45;82.51
69776;DHT22;57049;51.450;-2.516;2024-03-07T14:45:19;10.48;82.81
69776;DHT22;57049;51.450;-2.516;2024-03-07T14:47:48;10.17;84.07
69776;DHT22;57049;51.450;-2.516;2024-03-07T14:50:14;9.94;85.50
69776;DHT22;57049;51.450;-2.516;2024-03-07T14:52:42;10.14;85.68
69776;DHT22;57049;51.450;-2.516;2024-03-07T14:55:08;10.14;85.46
69776;DHT22;57049;51.450;-2.516;2024-03-07T14:57:34;10.03;85.33
69776;DHT22;57049;51.450;-2.516;2024-03-07T14:59:59;9.90;85.95
69776;DHT22;57049;51.450;-2.516;2024-03-07T15:02:25;9.92;86.26
69776;DHT22;57049;51.450;-2.516;2024-03-07T15:04:51;10.24;85.52
69776;DHT22;57049;51.450;-2.516;2024-03-07T15:07:18;10.13;85.63
69776;DHT22;57049;51.450;-2.516;2024-03-07T15:09:49;10.00;85.70
69776;DHT22;57049;51.450;-2.516;2024-03-07T15:12:15;10.27;85.67
69776;DHT22;57049;51.450;-2.516;2024-03-07T15:14:41;10.31;85.40
69776;DHT22;57049;51.450;-2.516;2024-03-07T15:17:07;10.23;85.65
69776;DHT22;57049;51.450;-2.516;2024-03-07T15:19:32;9.99;86.31
69776;DHT22;57049;51.450;-2.516;2024-03-07T15:22:00;9.94;85.77
69776;DHT22;57049;51.450;-2.516;2024-03-07T15:24:28;9.86;86.11
69776;DHT22;57049;51.450;-2.516;2024-03-07T15:26:54;9.85;86.10
69776;DHT22;57049;51.450;-2.516;2024-03-07T15:29:19;9.80;86.08
69776;DHT22;57049;51.450;-2.516;2024-03-07T15:31:48;9.89;85.97
69776;DHT22;57049;51.450;-2.516;2024-03-07T15:34:14;10.04;85.70
69776;DHT22;57049;51.450;-2.516;2024-03-07T15:36:42;10.10;85.72
69776;DHT22;57049;51.450;-2.516;2024-03-07T15:39:07;10.18;85.32
69776;DHT22;57049;51.450;-2.516;2024-03-07T15:41:45;10.21;85.27
69776;DHT22;57049;51.450;-2.516;2024-03-07T15:44:11;10.16;85.53
69776;DHT22;57049;51.450;-2.516;2024-03-07T15:46:37;10.18;84.86
69776;DHT22;57049;51.450;-2.516;2024-03-07T15:49:03;10.13;85.16
69776;DHT22;57049;51.450;-2.516;2024-03-07T15:51:29;10.16;84.96
69776;DHT22;57049;51.450;-2.516;2024-03-07T15:53:54;10.20;84.94
69776;DHT22;57049;51.450;-2.516;2024-03-07T15:56:22;10.16;84.81
69776;DHT22;57049;51.450;-2.516;2024-03-07T15:58:50;10.14;84.31
69776;DHT22;57049;51.450;-2.516;2024-03-07T16:01:15;10.10;84.53